SWR5225 LFLX-LSZH
Flight info
| Callsign | SWR5225 |
|---|---|
| Flight time | 0h 59m |
| Altitude | 19000 |
| Route | GUSON R66 RISUN/N0313F180 G21 RLP/N0442F390 Y112 LUL G42 BLM |
| Aircraft | A333/H-SDE3GHIJ2J3J5M1RVWXY/LB2D1 |
Departure
| Time | 2026-05-06 21:32 |
|---|---|
| Airport | Châteauroux Déols airport (LFLX) |
Arrival
| Time | 2026-05-06 22:31 |
|---|---|
| Airport | Zürich Airport (LSZH) |
| Time | Latitude | Longitude | Altitude | Speed | Heading |
|---|---|---|---|---|---|
| 2026-05-06 21:12 | 46.85743 | 1.71754 | 529 ft | 0 kts | 289° |
| 2026-05-06 21:22 | 46.85740 | 1.71774 | 529 ft | 3 kts | 278° |
| 2026-05-06 21:22 | 46.85737 | 1.71801 | 529 ft | 3 kts | 278° |
| 2026-05-06 21:22 | 46.85734 | 1.71829 | 528 ft | 3 kts | 256° |
| 2026-05-06 21:23 | 46.85743 | 1.71854 | 528 ft | 3 kts | 214° |
| 2026-05-06 21:23 | 46.85748 | 1.71858 | 528 ft | 0 kts | 214° |
| 2026-05-06 21:27 | 46.85741 | 1.71851 | 528 ft | 3 kts | 214° |
| 2026-05-06 21:27 | 46.85719 | 1.71852 | 529 ft | 7 kts | 179° |
| 2026-05-06 21:28 | 46.85640 | 1.71824 | 529 ft | 14 kts | 195° |
| 2026-05-06 21:28 | 46.85543 | 1.71777 | 529 ft | 15 kts | 209° |
| 2026-05-06 21:28 | 46.85451 | 1.71681 | 529 ft | 17 kts | 213° |
| 2026-05-06 21:28 | 46.85340 | 1.71614 | 530 ft | 17 kts | 197° |
| 2026-05-06 21:29 | 46.85255 | 1.71576 | 530 ft | 11 kts | 197° |
| 2026-05-06 21:29 | 46.85172 | 1.71545 | 530 ft | 13 kts | 185° |
| 2026-05-06 21:29 | 46.85085 | 1.71581 | 531 ft | 13 kts | 142° |
| 2026-05-06 21:29 | 46.85069 | 1.71605 | 531 ft | 0 kts | 131° |
| 2026-05-06 21:30 | 46.85051 | 1.71637 | 531 ft | 11 kts | 126° |
| 2026-05-06 21:30 | 46.84996 | 1.71767 | 531 ft | 13 kts | 121° |
| 2026-05-06 21:30 | 46.84998 | 1.71832 | 531 ft | 9 kts | 51° |
| 2026-05-06 21:30 | 46.85031 | 1.71874 | 530 ft | 0 kts | 35° |
| 2026-05-06 21:31 | 46.85053 | 1.71896 | 530 ft | 25 kts | 35° |
| 2026-05-06 21:31 | 46.85423 | 1.72247 | 530 ft | 99 kts | 33° |
| 2026-05-06 21:31 | 46.86183 | 1.72972 | 527 ft | 161 kts | 33° |
| 2026-05-06 21:31 | 46.87189 | 1.73967 | 1112 ft | 177 kts | 34° |
| 2026-05-06 21:32 | 46.88223 | 1.75040 | 2056 ft | 186 kts | 35° |
| 2026-05-06 21:32 | 46.90314 | 1.77283 | 3529 ft | 192 kts | 36° |
| 2026-05-06 21:32 | 46.91428 | 1.78477 | 4034 ft | 207 kts | 35° |
| 2026-05-06 21:33 | 46.92524 | 1.79994 | 4416 ft | 229 kts | 59° |
| 2026-05-06 21:33 | 46.92964 | 1.82342 | 4926 ft | 247 kts | 76° |
| 2026-05-06 21:33 | 46.93424 | 1.84797 | 5416 ft | 260 kts | 78° |
| 2026-05-06 21:33 | 46.93248 | 1.87435 | 6063 ft | 269 kts | 112° |
| 2026-05-06 21:34 | 46.92058 | 1.89548 | 6757 ft | 276 kts | 146° |
| 2026-05-06 21:34 | 46.90289 | 1.90647 | 7471 ft | 278 kts | 160° |
| 2026-05-06 21:34 | 46.88579 | 1.91989 | 8233 ft | 281 kts | 145° |
| 2026-05-06 21:34 | 46.87044 | 1.93789 | 8986 ft | 285 kts | 140° |
| 2026-05-06 21:35 | 46.85563 | 1.95743 | 9731 ft | 289 kts | 139° |
| 2026-05-06 21:35 | 46.84057 | 1.97731 | 10327 ft | 297 kts | 140° |
| 2026-05-06 21:35 | 46.82453 | 1.99750 | 10672 ft | 313 kts | 141° |
| 2026-05-06 21:35 | 46.80721 | 2.01808 | 11000 ft | 328 kts | 143° |
| 2026-05-06 21:36 | 46.78897 | 2.03883 | 11509 ft | 336 kts | 144° |
| 2026-05-06 21:36 | 46.77020 | 2.05964 | 12101 ft | 341 kts | 144° |
| 2026-05-06 21:36 | 46.75112 | 2.08054 | 12752 ft | 345 kts | 145° |
| 2026-05-06 21:36 | 46.73185 | 2.10157 | 13400 ft | 348 kts | 145° |
| 2026-05-06 21:37 | 46.71238 | 2.12280 | 14016 ft | 351 kts | 145° |
| 2026-05-06 21:37 | 46.69273 | 2.14426 | 14602 ft | 354 kts | 144° |
| 2026-05-06 21:37 | 46.67294 | 2.16591 | 15190 ft | 357 kts | 144° |
| 2026-05-06 21:37 | 46.65304 | 2.18769 | 15785 ft | 360 kts | 144° |
| 2026-05-06 21:38 | 46.63295 | 2.20966 | 16380 ft | 362 kts | 144° |
| 2026-05-06 21:38 | 46.61271 | 2.23179 | 16973 ft | 365 kts | 144° |
| 2026-05-06 21:38 | 46.59233 | 2.25407 | 17553 ft | 368 kts | 144° |
| 2026-05-06 21:38 | 46.57176 | 2.27652 | 18120 ft | 371 kts | 144° |
| 2026-05-06 21:39 | 46.55109 | 2.29906 | 18629 ft | 374 kts | 144° |
| 2026-05-06 21:39 | 46.53017 | 2.32185 | 18915 ft | 376 kts | 144° |
| 2026-05-06 21:39 | 46.50951 | 2.34435 | 18977 ft | 366 kts | 144° |
| 2026-05-06 21:39 | 46.48938 | 2.36626 | 18983 ft | 360 kts | 144° |
| 2026-05-06 21:40 | 46.46938 | 2.38798 | 18984 ft | 359 kts | 144° |
| 2026-05-06 21:40 | 46.44939 | 2.40966 | 18987 ft | 359 kts | 144° |
| 2026-05-06 21:40 | 46.42937 | 2.43135 | 18983 ft | 360 kts | 144° |
| 2026-05-06 21:40 | 46.40927 | 2.45310 | 18983 ft | 361 kts | 144° |
| 2026-05-06 21:41 | 46.39052 | 2.47717 | 18980 ft | 362 kts | 131° |
| 2026-05-06 21:41 | 46.37676 | 2.50752 | 18981 ft | 362 kts | 114° |
| 2026-05-06 21:41 | 46.36942 | 2.54228 | 18983 ft | 362 kts | 102° |
| 2026-05-06 21:41 | 46.36609 | 2.57836 | 18977 ft | 361 kts | 88° |
| 2026-05-06 21:42 | 46.37020 | 2.61396 | 19063 ft | 359 kts | 71° |
| 2026-05-06 21:42 | 46.37912 | 2.64809 | 19298 ft | 367 kts | 65° |
| 2026-05-06 21:42 | 46.39000 | 2.68214 | 19543 ft | 378 kts | 63° |
| 2026-05-06 21:42 | 46.40198 | 2.71651 | 19791 ft | 387 kts | 61° |
| 2026-05-06 21:43 | 46.41449 | 2.75155 | 20034 ft | 396 kts | 61° |
| 2026-05-06 21:43 | 46.42721 | 2.78742 | 20269 ft | 404 kts | 62° |
| 2026-05-06 21:43 | 46.43997 | 2.82406 | 20497 ft | 412 kts | 62° |
| 2026-05-06 21:43 | 46.45281 | 2.86157 | 20740 ft | 418 kts | 62° |
| 2026-05-06 21:44 | 46.46566 | 2.89960 | 20951 ft | 424 kts | 63° |
| 2026-05-06 21:44 | 46.47865 | 2.93834 | 20972 ft | 428 kts | 63° |
| 2026-05-06 21:44 | 46.49161 | 2.97722 | 20970 ft | 428 kts | 63° |
| 2026-05-06 21:44 | 46.50455 | 3.01611 | 20974 ft | 428 kts | 63° |
| 2026-05-06 21:45 | 46.51731 | 3.05452 | 20976 ft | 428 kts | 63° |
| 2026-05-06 21:45 | 46.53023 | 3.09346 | 20978 ft | 428 kts | 63° |
| 2026-05-06 21:45 | 46.54315 | 3.13244 | 20975 ft | 428 kts | 63° |
| 2026-05-06 21:45 | 46.55607 | 3.17145 | 20971 ft | 429 kts | 63° |
| 2026-05-06 21:46 | 46.56897 | 3.21042 | 20978 ft | 429 kts | 63° |
| 2026-05-06 21:46 | 46.58188 | 3.24947 | 20970 ft | 428 kts | 63° |
| 2026-05-06 21:46 | 46.59472 | 3.28846 | 20972 ft | 427 kts | 63° |
| 2026-05-06 21:46 | 46.60750 | 3.32738 | 20974 ft | 426 kts | 64° |
| 2026-05-06 21:47 | 46.62027 | 3.36632 | 20973 ft | 426 kts | 64° |
| 2026-05-06 21:47 | 46.63302 | 3.40528 | 20974 ft | 426 kts | 64° |
| 2026-05-06 21:47 | 46.64576 | 3.44425 | 20974 ft | 426 kts | 64° |
| 2026-05-06 21:47 | 46.65850 | 3.48322 | 20974 ft | 426 kts | 64° |
| 2026-05-06 21:48 | 46.67126 | 3.52221 | 20972 ft | 426 kts | 64° |
| 2026-05-06 21:48 | 46.68397 | 3.56113 | 20974 ft | 426 kts | 64° |
| 2026-05-06 21:48 | 46.69700 | 3.59992 | 20968 ft | 426 kts | 60° |
| 2026-05-06 21:48 | 46.71384 | 3.63524 | 20970 ft | 424 kts | 48° |
| 2026-05-06 21:49 | 46.73389 | 3.66679 | 20972 ft | 424 kts | 44° |
| 2026-05-06 21:49 | 46.75509 | 3.69669 | 20970 ft | 424 kts | 42° |
| 2026-05-06 21:49 | 46.77692 | 3.72560 | 20967 ft | 424 kts | 41° |
| 2026-05-06 21:49 | 46.79899 | 3.75406 | 20970 ft | 424 kts | 40° |
| 2026-05-06 21:50 | 46.82114 | 3.78247 | 20967 ft | 424 kts | 40° |
| 2026-05-06 21:50 | 46.84325 | 3.81097 | 20966 ft | 424 kts | 40° |
| 2026-05-06 21:50 | 46.86529 | 3.83961 | 20971 ft | 424 kts | 41° |
| 2026-05-06 21:50 | 46.88725 | 3.86837 | 20970 ft | 424 kts | 41° |
| 2026-05-06 21:51 | 46.90917 | 3.89722 | 20972 ft | 424 kts | 41° |
| 2026-05-06 21:51 | 46.93106 | 3.92616 | 20971 ft | 424 kts | 41° |
| 2026-05-06 21:51 | 46.95294 | 3.95514 | 20973 ft | 424 kts | 41° |
| 2026-05-06 21:51 | 46.97478 | 3.98411 | 20973 ft | 424 kts | 41° |
| 2026-05-06 21:52 | 46.99665 | 4.01315 | 20974 ft | 424 kts | 41° |
| 2026-05-06 21:52 | 47.01852 | 4.04221 | 20973 ft | 424 kts | 41° |
| 2026-05-06 21:52 | 47.04038 | 4.07129 | 20975 ft | 424 kts | 41° |
| 2026-05-06 21:52 | 47.06224 | 4.10040 | 20981 ft | 424 kts | 41° |
| 2026-05-06 21:53 | 47.08410 | 4.12952 | 20975 ft | 425 kts | 41° |
| 2026-05-06 21:53 | 47.10593 | 4.15863 | 20973 ft | 425 kts | 41° |
| 2026-05-06 21:53 | 47.12779 | 4.18783 | 20972 ft | 425 kts | 41° |
| 2026-05-06 21:53 | 47.14963 | 4.21701 | 20977 ft | 424 kts | 41° |
| 2026-05-06 21:54 | 47.17146 | 4.24622 | 20971 ft | 424 kts | 41° |
| 2026-05-06 21:54 | 47.19328 | 4.27545 | 20975 ft | 424 kts | 41° |
| 2026-05-06 21:54 | 47.21509 | 4.30470 | 20973 ft | 424 kts | 41° |
| 2026-05-06 21:54 | 47.23688 | 4.33397 | 20976 ft | 424 kts | 41° |
| 2026-05-06 21:55 | 47.25839 | 4.36287 | 20976 ft | 424 kts | 41° |
| 2026-05-06 21:55 | 47.28018 | 4.39220 | 20973 ft | 424 kts | 41° |
| 2026-05-06 21:55 | 47.30225 | 4.42194 | 20984 ft | 424 kts | 41° |
| 2026-05-06 21:55 | 47.31663 | 4.44133 | 20981 ft | 424 kts | 41° |
| 2026-05-06 21:56 | 47.33833 | 4.47063 | 20979 ft | 423 kts | 41° |
| 2026-05-06 21:56 | 47.36699 | 4.50938 | 20979 ft | 422 kts | 41° |
| 2026-05-06 21:56 | 47.38751 | 4.54039 | 20979 ft | 423 kts | 49° |
| 2026-05-06 21:56 | 47.40384 | 4.57649 | 20985 ft | 424 kts | 62° |
| 2026-05-06 21:57 | 47.41524 | 4.61675 | 20961 ft | 426 kts | 69° |
| 2026-05-06 21:57 | 47.42137 | 4.64429 | 20981 ft | 427 kts | 72° |
| 2026-05-06 21:57 | 47.42938 | 4.68713 | 20977 ft | 427 kts | 75° |
| 2026-05-06 21:57 | 47.43637 | 4.72967 | 20971 ft | 428 kts | 76° |
| 2026-05-06 21:58 | 47.44308 | 4.77246 | 20973 ft | 428 kts | 76° |
| 2026-05-06 21:58 | 47.44970 | 4.81470 | 20976 ft | 428 kts | 76° |
| 2026-05-06 21:58 | 47.45653 | 4.85746 | 20970 ft | 428 kts | 76° |
| 2026-05-06 21:58 | 47.46349 | 4.90016 | 20961 ft | 428 kts | 75° |
| 2026-05-06 21:59 | 47.47055 | 4.94285 | 20966 ft | 428 kts | 75° |
| 2026-05-06 21:59 | 47.47765 | 4.98543 | 20968 ft | 428 kts | 75° |
| 2026-05-06 21:59 | 47.48478 | 5.02811 | 20972 ft | 428 kts | 75° |
| 2026-05-06 21:59 | 47.49191 | 5.07079 | 20974 ft | 427 kts | 75° |
| 2026-05-06 22:00 | 47.49903 | 5.11353 | 20966 ft | 427 kts | 75° |
| 2026-05-06 22:00 | 47.50609 | 5.15606 | 20953 ft | 427 kts | 75° |
| 2026-05-06 22:00 | 47.51314 | 5.19869 | 20967 ft | 427 kts | 75° |
| 2026-05-06 22:00 | 47.52017 | 5.24130 | 20959 ft | 427 kts | 75° |
| 2026-05-06 22:01 | 47.52719 | 5.28395 | 20965 ft | 427 kts | 75° |
| 2026-05-06 22:01 | 47.53419 | 5.32661 | 20949 ft | 427 kts | 75° |
| 2026-05-06 22:01 | 47.54117 | 5.36930 | 20954 ft | 427 kts | 75° |
| 2026-05-06 22:01 | 47.54813 | 5.41195 | 20950 ft | 427 kts | 75° |
| 2026-05-06 22:02 | 47.55508 | 5.45466 | 20947 ft | 427 kts | 76° |
| 2026-05-06 22:02 | 47.56204 | 5.49751 | 20947 ft | 429 kts | 76° |
| 2026-05-06 22:02 | 47.56900 | 5.54052 | 20944 ft | 430 kts | 76° |
| 2026-05-06 22:02 | 47.57596 | 5.58358 | 20943 ft | 430 kts | 76° |
| 2026-05-06 22:03 | 47.58290 | 5.62667 | 20945 ft | 430 kts | 76° |
| 2026-05-06 22:03 | 47.58983 | 5.66978 | 20944 ft | 430 kts | 76° |
| 2026-05-06 22:03 | 47.59672 | 5.71279 | 20942 ft | 430 kts | 76° |
| 2026-05-06 22:03 | 47.60361 | 5.75591 | 20942 ft | 430 kts | 76° |
| 2026-05-06 22:04 | 47.61049 | 5.79905 | 20938 ft | 430 kts | 76° |
| 2026-05-06 22:04 | 47.61735 | 5.84220 | 20938 ft | 430 kts | 76° |
| 2026-05-06 22:04 | 47.62420 | 5.88536 | 20944 ft | 430 kts | 76° |
| 2026-05-06 22:04 | 47.63103 | 5.92853 | 20940 ft | 430 kts | 76° |
| 2026-05-06 22:05 | 47.63785 | 5.97169 | 20938 ft | 431 kts | 76° |
| 2026-05-06 22:05 | 47.64465 | 6.01492 | 20939 ft | 430 kts | 76° |
| 2026-05-06 22:05 | 47.65143 | 6.05810 | 20933 ft | 429 kts | 76° |
| 2026-05-06 22:05 | 47.65817 | 6.10114 | 20933 ft | 428 kts | 76° |
| 2026-05-06 22:06 | 47.66488 | 6.14417 | 20936 ft | 428 kts | 76° |
| 2026-05-06 22:06 | 47.67158 | 6.18719 | 20936 ft | 428 kts | 76° |
| 2026-05-06 22:06 | 47.67827 | 6.23022 | 20933 ft | 428 kts | 76° |
| 2026-05-06 22:06 | 47.68437 | 6.27341 | 20932 ft | 428 kts | 81° |
| 2026-05-06 22:07 | 47.68625 | 6.31752 | 20934 ft | 429 kts | 89° |
| 2026-05-06 22:07 | 47.68601 | 6.36184 | 20930 ft | 430 kts | 91° |
| 2026-05-06 22:07 | 47.68471 | 6.40619 | 20927 ft | 430 kts | 93° |
| 2026-05-06 22:07 | 47.68283 | 6.45051 | 20929 ft | 431 kts | 94° |
| 2026-05-06 22:08 | 47.68071 | 6.49487 | 20930 ft | 431 kts | 94° |
| 2026-05-06 22:08 | 47.67855 | 6.53910 | 20929 ft | 430 kts | 94° |
| 2026-05-06 22:08 | 47.67644 | 6.58344 | 20934 ft | 431 kts | 94° |
| 2026-05-06 22:08 | 47.67441 | 6.62721 | 20932 ft | 431 kts | 94° |
| 2026-05-06 22:09 | 47.67241 | 6.67156 | 20934 ft | 430 kts | 93° |
| 2026-05-06 22:09 | 47.67043 | 6.71590 | 20933 ft | 431 kts | 93° |
| 2026-05-06 22:09 | 47.66844 | 6.76028 | 20937 ft | 431 kts | 94° |
| 2026-05-06 22:09 | 47.66643 | 6.80470 | 20937 ft | 432 kts | 94° |
| 2026-05-06 22:10 | 47.66441 | 6.84915 | 20935 ft | 433 kts | 94° |
| 2026-05-06 22:10 | 47.66237 | 6.89370 | 20936 ft | 433 kts | 94° |
| 2026-05-06 22:10 | 47.66031 | 6.93825 | 20936 ft | 433 kts | 94° |
| 2026-05-06 22:10 | 47.65824 | 6.98276 | 20935 ft | 433 kts | 94° |
| 2026-05-06 22:11 | 47.65614 | 7.02728 | 20936 ft | 432 kts | 94° |
| 2026-05-06 22:11 | 47.65403 | 7.07180 | 20938 ft | 433 kts | 94° |
| 2026-05-06 22:11 | 47.65191 | 7.11629 | 20938 ft | 432 kts | 94° |
| 2026-05-06 22:11 | 47.64977 | 7.16075 | 20939 ft | 431 kts | 95° |
| 2026-05-06 22:12 | 47.64762 | 7.20493 | 20941 ft | 428 kts | 94° |
| 2026-05-06 22:12 | 47.64547 | 7.24886 | 20942 ft | 426 kts | 95° |
| 2026-05-06 22:12 | 47.64331 | 7.29268 | 20941 ft | 426 kts | 95° |
| 2026-05-06 22:12 | 47.64113 | 7.33646 | 20941 ft | 426 kts | 95° |
| 2026-05-06 22:13 | 47.63894 | 7.38025 | 20944 ft | 426 kts | 95° |
| 2026-05-06 22:13 | 47.63673 | 7.42399 | 20949 ft | 426 kts | 95° |
| 2026-05-06 22:13 | 47.63450 | 7.46786 | 20949 ft | 426 kts | 95° |
| 2026-05-06 22:13 | 47.62983 | 7.51101 | 20966 ft | 425 kts | 106° |
| 2026-05-06 22:14 | 47.62096 | 7.55279 | 20966 ft | 425 kts | 109° |
| 2026-05-06 22:14 | 47.61123 | 7.59398 | 20966 ft | 423 kts | 111° |
| 2026-05-06 22:14 | 47.60146 | 7.63504 | 20967 ft | 422 kts | 112° |
| 2026-05-06 22:14 | 47.59175 | 7.67599 | 20965 ft | 421 kts | 112° |
| 2026-05-06 22:15 | 47.58208 | 7.71686 | 20964 ft | 420 kts | 111° |
| 2026-05-06 22:15 | 47.57243 | 7.75769 | 20965 ft | 421 kts | 111° |
| 2026-05-06 22:15 | 47.56298 | 7.79778 | 20959 ft | 409 kts | 110° |
| 2026-05-06 22:15 | 47.55384 | 7.83657 | 20864 ft | 391 kts | 112° |
| 2026-05-06 22:16 | 47.54506 | 7.87374 | 20644 ft | 377 kts | 110° |
| 2026-05-06 22:16 | 47.53653 | 7.90974 | 20418 ft | 365 kts | 111° |
| 2026-05-06 22:16 | 47.52825 | 7.94463 | 20229 ft | 354 kts | 110° |
| 2026-05-06 22:16 | 47.52020 | 7.97848 | 20015 ft | 344 kts | 111° |
| 2026-05-06 22:17 | 47.51253 | 8.01176 | 19671 ft | 340 kts | 107° |
| 2026-05-06 22:17 | 47.51075 | 8.04653 | 19217 ft | 344 kts | 82° |
| 2026-05-06 22:17 | 47.51896 | 8.07960 | 18802 ft | 345 kts | 63° |
| 2026-05-06 22:17 | 47.53153 | 8.10973 | 18401 ft | 343 kts | 58° |
| 2026-05-06 22:18 | 47.54447 | 8.13918 | 17966 ft | 341 kts | 59° |
| 2026-05-06 22:18 | 47.55725 | 8.16880 | 17417 ft | 342 kts | 59° |
| 2026-05-06 22:18 | 47.56981 | 8.19849 | 17049 ft | 337 kts | 60° |
| 2026-05-06 22:18 | 47.58210 | 8.22795 | 16572 ft | 336 kts | 60° |
| 2026-05-06 22:19 | 47.59423 | 8.25759 | 16093 ft | 336 kts | 60° |
| 2026-05-06 22:19 | 47.60636 | 8.28712 | 15617 ft | 335 kts | 59° |
| 2026-05-06 22:19 | 47.61848 | 8.31658 | 15122 ft | 335 kts | 59° |
| 2026-05-06 22:19 | 47.62983 | 8.34664 | 14661 ft | 333 kts | 68° |
| 2026-05-06 22:20 | 47.63506 | 8.37979 | 14193 ft | 331 kts | 91° |
| 2026-05-06 22:20 | 47.63089 | 8.41283 | 13720 ft | 325 kts | 116° |
| 2026-05-06 22:20 | 47.61783 | 8.43911 | 13418 ft | 313 kts | 143° |
| 2026-05-06 22:20 | 47.59923 | 8.45364 | 13147 ft | 298 kts | 171° |
| 2026-05-06 22:21 | 47.57905 | 8.45412 | 12887 ft | 288 kts | 195° |
| 2026-05-06 22:21 | 47.56079 | 8.44321 | 12622 ft | 282 kts | 214° |
| 2026-05-06 22:21 | 47.54649 | 8.42370 | 12348 ft | 279 kts | 233° |
| 2026-05-06 22:21 | 47.53594 | 8.39966 | 11920 ft | 277 kts | 239° |
| 2026-05-06 22:22 | 47.52647 | 8.37525 | 11345 ft | 271 kts | 242° |
| 2026-05-06 22:22 | 47.51799 | 8.35050 | 10552 ft | 270 kts | 244° |
| 2026-05-06 22:22 | 47.50970 | 8.32567 | 9803 ft | 268 kts | 243° |
| 2026-05-06 22:22 | 47.50259 | 8.30094 | 9364 ft | 254 kts | 257° |
| 2026-05-06 22:23 | 47.50388 | 8.27603 | 9074 ft | 242 kts | 290° |
| 2026-05-06 22:23 | 47.51356 | 8.25632 | 8798 ft | 237 kts | 313° |
| 2026-05-06 22:23 | 47.52716 | 8.24271 | 8365 ft | 236 kts | 325° |
| 2026-05-06 22:23 | 47.54125 | 8.23057 | 7913 ft | 233 kts | 323° |
| 2026-05-06 22:24 | 47.55509 | 8.21842 | 7417 ft | 230 kts | 323° |
| 2026-05-06 22:24 | 47.56981 | 8.20891 | 6911 ft | 238 kts | 345° |
| 2026-05-06 22:24 | 47.58656 | 8.21102 | 6414 ft | 250 kts | 16° |
| 2026-05-06 22:24 | 47.60093 | 8.22562 | 5939 ft | 255 kts | 48° |
| 2026-05-06 22:25 | 47.60912 | 8.24854 | 5517 ft | 251 kts | 70° |
| 2026-05-06 22:25 | 47.61539 | 8.27219 | 5077 ft | 249 kts | 66° |
| 2026-05-06 22:25 | 47.62200 | 8.29575 | 4756 ft | 246 kts | 66° |
| 2026-05-06 22:25 | 47.62672 | 8.32017 | 4443 ft | 244 kts | 87° |
| 2026-05-06 22:26 | 47.62528 | 8.34501 | 4092 ft | 241 kts | 101° |
| 2026-05-06 22:26 | 47.62204 | 8.36938 | 3983 ft | 241 kts | 104° |
| 2026-05-06 22:26 | 47.61545 | 8.39134 | 3985 ft | 236 kts | 131° |
| 2026-05-06 22:26 | 47.60416 | 8.40857 | 3983 ft | 229 kts | 142° |
| 2026-05-06 22:27 | 47.59152 | 8.42083 | 3981 ft | 203 kts | 165° |
| 2026-05-06 22:27 | 47.57913 | 8.42836 | 3959 ft | 191 kts | 154° |
| 2026-05-06 22:27 | 47.56750 | 8.43732 | 3657 ft | 188 kts | 161° |
| 2026-05-06 22:27 | 47.55596 | 8.44586 | 3390 ft | 182 kts | 159° |
| 2026-05-06 22:28 | 47.54492 | 8.45435 | 3071 ft | 176 kts | 155° |
| 2026-05-06 22:28 | 47.53494 | 8.46408 | 2761 ft | 166 kts | 147° |
| 2026-05-06 22:28 | 47.52650 | 8.47472 | 2565 ft | 154 kts | 142° |
| 2026-05-06 22:28 | 47.51891 | 8.48527 | 2322 ft | 146 kts | 138° |
| 2026-05-06 22:29 | 47.51171 | 8.49543 | 2127 ft | 142 kts | 137° |
| 2026-05-06 22:29 | 47.50455 | 8.50533 | 1979 ft | 141 kts | 138° |
| 2026-05-06 22:29 | 47.49731 | 8.51508 | 1826 ft | 140 kts | 136° |
| 2026-05-06 22:29 | 47.49014 | 8.52480 | 1678 ft | 140 kts | 135° |
| 2026-05-06 22:30 | 47.48308 | 8.53463 | 1475 ft | 139 kts | 135° |
| 2026-05-06 22:30 | 47.47637 | 8.54388 | 1409 ft | 118 kts | 137° |
| 2026-05-06 22:30 | 47.47175 | 8.55019 | 1408 ft | 72 kts | 137° |
| 2026-05-06 22:30 | 47.46827 | 8.55493 | 1408 ft | 55 kts | 137° |
| 2026-05-06 22:31 | 47.46672 | 8.55641 | 1403 ft | 24 kts | 156° |
| 2026-05-06 22:31 | 47.46515 | 8.55705 | 1409 ft | 21 kts | 167° |
| 2026-05-06 22:31 | 47.46380 | 8.55769 | 1405 ft | 20 kts | 147° |
| 2026-05-06 22:31 | 47.46274 | 8.55903 | 1410 ft | 20 kts | 138° |
| 2026-05-06 22:32 | 47.46173 | 8.55989 | 1408 ft | 16 kts | 178° |
| 2026-05-06 22:32 | 47.46061 | 8.55980 | 1411 ft | 16 kts | 183° |
| 2026-05-06 22:32 | 47.45961 | 8.55951 | 1410 ft | 14 kts | 214° |
| 2026-05-06 22:32 | 47.45946 | 8.55806 | 1407 ft | 16 kts | 275° |
| 2026-05-06 22:33 | 47.45958 | 8.55638 | 1402 ft | 13 kts | 276° |
| 2026-05-06 22:33 | 47.45964 | 8.55550 | 1409 ft | 4 kts | 283° |
| 2026-05-06 22:33 | 47.45982 | 8.55525 | 1409 ft | 2 kts | 345° |
| 2026-05-06 22:33 | 47.46012 | 8.55525 | 1408 ft | 0 kts | 1° |
| 2026-05-06 22:34 | 47.46029 | 8.55527 | 1408 ft | 1 kts | 5° |
| 2026-05-06 22:34 | 47.46037 | 8.55528 | 1408 ft | 3 kts | 3° |
| 2026-05-06 22:34 | 47.46045 | 8.55529 | 1408 ft | 0 kts | 3° |